< < Back
Terminal Aerodrome Forecast


Current Version              Previous Versions:   1  2  3  4  5  6  7  8  9  

Terminal Aerodrome Forecast

116
FTUS42 KJAX 262228 AAA
TAFGNV
TAF AMD
KGNV 262228Z 2622/2718 15008KT P6SM VCTS BKN045CB OVC100
      TEMPO 2622/2701 VRB15G25KT 5SM TSRA BKN035CB
     FM270100 12004KT P6SM SCT030 BKN150
     FM271400 13008KT P6SM SCT035=

Latest METAR

255
SAUS70 KWBC 270500 RRN
MTRGNV
METAR KGNV 270453Z 30004KT 10SM BKN005 BKN110 22/21 A3025 RMK AO2 SLP240
T02220211 403280217


USA.gov is the U.S. government's official web portal to all federal, state and local government web resources and services.